createdAt,value
2017-09-10T00:00:01.836Z,8.50
2017-09-10T00:02:31.463Z,8.50
2017-09-10T00:04:59.049Z,8.50
2017-09-10T00:07:26.642Z,8.50
2017-09-10T00:09:54.365Z,8.50
2017-09-10T00:12:21.922Z,8.50
2017-09-10T00:14:49.518Z,8.70
2017-09-10T00:17:17.083Z,8.80
2017-09-10T00:19:44.931Z,8.80
2017-09-10T00:22:12.495Z,8.90
2017-09-10T00:24:40.363Z,8.80
2017-09-10T00:27:07.950Z,8.80
2017-09-10T00:29:36.313Z,8.60
2017-09-10T00:32:03.911Z,8.50
2017-09-10T00:34:32.242Z,8.50
2017-09-10T00:36:59.794Z,8.50
2017-09-10T00:39:27.741Z,8.40
2017-09-10T00:41:55.301Z,8.30
2017-09-10T00:44:23.180Z,8.30
2017-09-10T00:46:50.753Z,8.40
2017-09-10T00:49:18.313Z,8.30
2017-09-10T00:51:45.896Z,8.30
2017-09-10T00:54:14.318Z,8.40
2017-09-10T00:56:41.906Z,8.40
2017-09-10T00:59:09.470Z,8.60
2017-09-10T01:01:37.439Z,8.50
2017-09-10T01:04:05.082Z,8.50
2017-09-10T01:06:32.649Z,8.40
2017-09-10T01:09:00.595Z,8.40
2017-09-10T01:11:28.158Z,8.30
2017-09-10T01:13:56.015Z,8.30
2017-09-10T01:16:24.471Z,8.20
2017-09-10T01:18:52.803Z,8.40
2017-09-10T01:21:20.399Z,8.30
2017-09-10T01:23:48.734Z,8.60
2017-09-10T01:26:17.078Z,8.70
2017-09-10T01:28:44.986Z,8.60
2017-09-10T01:31:12.854Z,8.80
2017-09-10T01:33:40.409Z,8.80
2017-09-10T01:36:07.978Z,8.90
2017-09-10T01:38:35.570Z,9.00
2017-09-10T01:41:03.926Z,9.20
2017-09-10T01:43:31.513Z,9.20
2017-09-10T01:45:59.839Z,9.20
2017-09-10T01:48:27.702Z,9.20
2017-09-10T01:50:55.321Z,9.20
2017-09-10T01:53:22.908Z,9.20
2017-09-10T01:55:50.563Z,9.30
2017-09-10T01:58:18.120Z,9.30
2017-09-10T02:00:45.718Z,9.30
2017-09-10T02:03:13.289Z,9.30
2017-09-10T02:05:41.205Z,9.30
2017-09-10T02:08:08.804Z,9.20
2017-09-10T02:10:36.402Z,9.20
2017-09-10T02:13:04.755Z,9.00
2017-09-10T02:15:32.325Z,9.00
2017-09-10T02:18:00.674Z,8.90
2017-09-10T02:20:28.241Z,8.90
2017-09-10T02:22:56.094Z,8.90
2017-09-10T02:25:23.666Z,8.90
2017-09-10T02:27:51.217Z,8.80
2017-09-10T02:30:18.849Z,8.80
2017-09-10T02:32:46.398Z,8.80
2017-09-10T02:35:14.000Z,8.90
2017-09-10T02:37:41.554Z,8.90
2017-09-10T02:40:09.417Z,8.90
2017-09-10T02:42:36.991Z,9.00
2017-09-10T02:45:04.549Z,9.00
2017-09-10T02:47:32.150Z,9.10
2017-09-10T02:49:59.730Z,9.10
2017-09-10T02:52:27.327Z,8.90
2017-09-10T02:54:54.961Z,8.90
2017-09-10T02:57:22.938Z,9.00
2017-09-10T02:59:50.510Z,8.90
2017-09-10T03:02:18.120Z,8.90
2017-09-10T03:04:45.710Z,9.00
2017-09-10T03:07:13.275Z,9.00
2017-09-10T03:09:40.877Z,9.00
2017-09-10T03:12:09.210Z,8.90
2017-09-10T03:14:37.175Z,8.90
2017-09-10T03:17:04.730Z,9.00
2017-09-10T03:19:32.293Z,9.10
2017-09-10T03:22:00.047Z,9.00
2017-09-10T03:24:27.614Z,9.00
2017-09-10T03:26:55.226Z,9.00
2017-09-10T03:29:23.583Z,9.00
2017-09-10T03:31:51.529Z,9.00
2017-09-10T03:34:19.086Z,9.00
2017-09-10T03:36:46.650Z,9.10
2017-09-10T03:39:14.249Z,9.20
2017-09-10T03:41:41.837Z,9.30
2017-09-10T03:44:09.423Z,9.30
2017-09-10T03:46:36.987Z,9.40
2017-09-10T03:49:04.858Z,9.20
2017-09-10T03:51:32.430Z,9.30
2017-09-10T03:53:59.989Z,9.20
2017-09-10T03:56:27.577Z,9.20
2017-09-10T03:58:55.142Z,9.10
2017-09-10T04:01:22.734Z,9.10
2017-09-10T04:03:50.288Z,9.20
2017-09-10T04:06:18.179Z,9.20
2017-09-10T04:08:45.730Z,9.20
2017-09-10T04:11:13.390Z,9.10
2017-09-10T04:13:40.981Z,9.10
2017-09-10T04:16:08.549Z,9.30
2017-09-10T04:18:36.124Z,9.30
2017-09-10T04:21:04.470Z,9.50
2017-09-10T04:23:32.417Z,9.50
2017-09-10T04:25:59.981Z,9.40
2017-09-10T04:28:27.538Z,9.40
2017-09-10T04:30:55.122Z,9.40
2017-09-10T04:33:22.645Z,9.30
2017-09-10T04:35:50.226Z,9.20
2017-09-10T04:38:17.793Z,9.20
2017-09-10T04:40:46.396Z,9.20
2017-09-10T04:43:14.728Z,9.20
2017-09-10T04:45:42.282Z,9.20
2017-09-10T04:48:09.853Z,9.20
2017-09-10T04:50:37.411Z,9.20
2017-09-10T04:53:05.123Z,9.20
2017-09-10T04:55:33.454Z,9.10
2017-09-10T04:58:01.314Z,9.10
2017-09-10T05:00:28.865Z,9.00
2017-09-10T05:02:56.434Z,8.90
2017-09-10T05:05:24.038Z,8.90
2017-09-10T05:07:52.375Z,8.80
2017-09-10T05:10:19.961Z,8.80
2017-09-10T05:12:47.663Z,8.90
2017-09-10T05:15:15.573Z,8.80
2017-09-10T05:17:43.138Z,8.80
2017-09-10T05:20:10.700Z,8.80
2017-09-10T05:22:38.284Z,8.70
2017-09-10T05:25:06.633Z,8.70
2017-09-10T05:27:34.598Z,8.60
2017-09-10T05:30:02.162Z,8.70
2017-09-10T05:32:29.712Z,8.70
2017-09-10T05:34:58.060Z,8.70
2017-09-10T05:37:25.646Z,8.70
2017-09-10T05:39:53.611Z,8.80
2017-09-10T05:42:21.918Z,8.90
2017-09-10T05:44:49.482Z,8.90
2017-09-10T05:47:17.824Z,8.90
2017-09-10T05:49:45.387Z,8.90
2017-09-10T05:52:14.030Z,9.00
2017-09-10T05:54:41.625Z,9.00
2017-09-10T05:57:09.198Z,9.20
2017-09-10T05:59:36.781Z,9.30
2017-09-10T06:02:05.107Z,9.60
2017-09-10T06:04:32.694Z,9.60
2017-09-10T06:07:00.798Z,9.60
2017-09-10T06:09:28.375Z,9.70
2017-09-10T06:11:55.974Z,9.80
2017-09-10T06:14:23.545Z,9.80
2017-09-10T06:16:51.194Z,9.90
2017-09-10T06:19:18.751Z,10.00
2017-09-10T06:21:46.325Z,10.20
2017-09-10T06:24:13.914Z,10.30
2017-09-10T06:26:42.251Z,10.50
2017-09-10T06:29:09.855Z,10.50
2017-09-10T06:31:38.203Z,10.70
2017-09-10T06:34:05.770Z,10.70
2017-09-10T06:36:33.351Z,10.50
2017-09-10T06:39:02.445Z,10.60
2017-09-10T06:41:31.541Z,10.70
2017-09-10T06:43:59.886Z,10.60
2017-09-10T06:46:27.839Z,10.60
2017-09-10T06:48:55.433Z,10.70
2017-09-10T06:51:23.773Z,10.90
2017-09-10T06:53:51.352Z,10.80
2017-09-10T06:56:18.933Z,10.90
2017-09-10T06:58:47.290Z,10.80
2017-09-10T07:01:14.854Z,10.70
2017-09-10T07:03:43.197Z,10.80
2017-09-10T07:06:10.756Z,10.60
2017-09-10T07:08:38.826Z,10.70
2017-09-10T07:11:06.454Z,10.60
2017-09-10T07:13:34.018Z,10.50
2017-09-10T07:16:01.610Z,10.50
2017-09-10T07:18:29.180Z,10.50
2017-09-10T07:20:57.141Z,10.50
2017-09-10T07:23:24.746Z,10.60
2017-09-10T07:25:53.103Z,11.20
2017-09-10T07:28:20.716Z,11.20
2017-09-10T07:30:48.292Z,11.30
2017-09-10T07:33:16.171Z,11.40
2017-09-10T07:35:43.759Z,11.50
2017-09-10T07:38:11.455Z,11.40
2017-09-10T07:40:39.036Z,11.50
2017-09-10T07:43:06.618Z,11.50
2017-09-10T07:45:34.234Z,11.70
2017-09-10T07:48:01.830Z,11.60
2017-09-10T07:50:29.699Z,11.60
2017-09-10T07:52:57.278Z,11.70
2017-09-10T07:55:24.839Z,11.70
2017-09-10T07:58:07.626Z,11.80
2017-09-10T08:00:35.196Z,11.60
2017-09-10T08:03:03.059Z,11.60
2017-09-10T08:05:30.699Z,11.60
2017-09-10T08:07:58.268Z,11.80
2017-09-10T08:10:25.870Z,11.90
2017-09-10T08:12:54.262Z,11.90
2017-09-10T08:15:21.946Z,11.90
2017-09-10T08:17:49.519Z,11.80
2017-09-10T08:20:17.431Z,11.80
2017-09-10T08:22:45.031Z,12.10
2017-09-10T08:25:12.626Z,12.00
2017-09-10T08:27:40.198Z,12.10
2017-09-10T08:30:07.793Z,12.20
2017-09-10T08:32:36.562Z,12.00
2017-09-10T08:35:04.145Z,11.90
2017-09-10T08:37:31.725Z,12.00
2017-09-10T08:39:59.335Z,12.00
2017-09-10T08:42:26.932Z,12.00
2017-09-10T08:44:54.544Z,12.10
2017-09-10T08:47:22.155Z,12.30
2017-09-10T08:49:49.744Z,12.60
2017-09-10T08:52:17.427Z,12.60
2017-09-10T08:54:45.023Z,12.90
2017-09-10T08:57:12.948Z,12.90
2017-09-10T08:59:40.543Z,12.90
2017-09-10T09:02:08.916Z,13.20
2017-09-10T09:04:37.308Z,13.00
2017-09-10T09:07:04.910Z,13.00
2017-09-10T09:09:32.551Z,13.10
2017-09-10T09:12:00.175Z,13.00
2017-09-10T09:14:28.996Z,12.80
2017-09-10T09:16:57.973Z,12.70
2017-09-10T09:19:25.822Z,12.90
2017-09-10T09:21:54.209Z,13.10
2017-09-10T09:24:21.847Z,13.10
2017-09-10T09:26:49.504Z,13.20
2017-09-10T09:29:17.138Z,13.40
2017-09-10T09:31:45.065Z,13.40
2017-09-10T09:34:12.648Z,13.70
2017-09-10T09:36:40.205Z,13.90
2017-09-10T09:39:07.831Z,13.90
2017-09-10T09:41:36.292Z,13.70
2017-09-10T09:44:04.715Z,13.70
2017-09-10T09:46:32.292Z,13.80
2017-09-10T09:49:00.200Z,13.70
2017-09-10T09:51:27.777Z,13.50
2017-09-10T09:53:56.301Z,13.40
2017-09-10T09:56:24.279Z,13.40
2017-09-10T09:58:51.919Z,13.30
2017-09-10T10:01:19.829Z,13.40
2017-09-10T10:03:47.687Z,13.50
2017-09-10T10:06:15.521Z,13.60
2017-09-10T10:08:43.337Z,13.50
2017-09-10T10:11:10.937Z,13.60
2017-09-10T10:13:38.594Z,13.50
2017-09-10T10:16:06.207Z,13.30
2017-09-10T10:18:34.282Z,13.20
2017-09-10T10:21:01.939Z,12.80
2017-09-10T10:23:29.542Z,12.70
2017-09-10T10:25:57.155Z,12.90
2017-09-10T10:28:25.505Z,13.00
2017-09-10T10:30:53.103Z,12.80
2017-09-10T10:33:20.701Z,12.70
2017-09-10T10:35:48.627Z,12.80
2017-09-10T10:38:16.228Z,12.80
2017-09-10T10:40:43.810Z,12.80
2017-09-10T10:43:11.404Z,13.10
2017-09-10T10:45:39.003Z,13.10
2017-09-10T10:48:06.614Z,13.20
2017-09-10T10:50:34.230Z,13.20
2017-09-10T10:53:02.148Z,13.20
2017-09-10T10:55:29.715Z,13.20
2017-09-10T10:57:57.293Z,13.60
2017-09-10T11:00:24.894Z,13.60
2017-09-10T11:02:52.473Z,13.50
2017-09-10T11:05:20.063Z,13.70
2017-09-10T11:07:47.649Z,14.00
2017-09-10T11:10:15.744Z,14.00
2017-09-10T11:12:43.323Z,14.20
2017-09-10T11:15:10.914Z,14.50
2017-09-10T11:17:38.511Z,14.60
2017-09-10T11:20:06.128Z,14.70
2017-09-10T11:22:33.748Z,14.90
2017-09-10T11:25:01.326Z,15.50
2017-09-10T11:27:29.205Z,15.80
2017-09-10T11:29:56.778Z,16.10
2017-09-10T11:32:24.357Z,16.40
2017-09-10T11:34:52.722Z,19.70
2017-09-10T11:37:21.079Z,19.20
2017-09-10T11:39:50.558Z,19.10
2017-09-10T11:42:18.745Z,19.10
2017-09-10T11:44:46.341Z,18.00
2017-09-10T11:47:14.776Z,18.00
2017-09-10T11:49:42.350Z,18.10
2017-09-10T11:52:09.951Z,19.20
2017-09-10T11:54:38.358Z,18.50
2017-09-10T11:57:06.230Z,18.50
2017-09-10T11:59:33.778Z,18.00
2017-09-10T12:02:01.365Z,18.50
2017-09-10T12:04:29.755Z,22.20
2017-09-10T12:06:57.348Z,22.20
2017-09-10T12:09:25.816Z,25.60
2017-09-10T12:11:53.392Z,25.50
2017-09-10T12:14:22.038Z,24.90
2017-09-10T12:16:49.642Z,24.90
2017-09-10T12:19:17.974Z,24.00
2017-09-10T12:21:45.579Z,24.00
2017-09-10T12:24:13.993Z,21.60
2017-09-10T12:26:41.587Z,21.60
2017-09-10T12:29:09.185Z,21.20
2017-09-10T12:31:37.095Z,21.20
2017-09-10T12:34:04.736Z,20.70
2017-09-10T12:36:32.307Z,21.50
2017-09-10T12:38:59.928Z,22.50
2017-09-10T12:41:27.510Z,23.80
2017-09-10T12:43:55.118Z,25.40
2017-09-10T12:46:22.727Z,26.40
2017-09-10T12:48:50.631Z,26.50
2017-09-10T12:51:18.256Z,24.90
2017-09-10T12:53:45.878Z,24.20
2017-09-10T12:56:14.270Z,24.60
2017-09-10T12:58:42.613Z,24.60
2017-09-10T13:01:10.219Z,24.60
2017-09-10T13:03:37.849Z,25.70
2017-09-10T13:06:05.791Z,26.60
2017-09-10T13:08:33.358Z,27.00
2017-09-10T13:11:00.952Z,26.00
2017-09-10T13:13:29.811Z,23.50
2017-09-10T13:15:57.378Z,23.50
2017-09-10T13:18:25.065Z,23.30
2017-09-10T13:20:53.458Z,23.40
2017-09-10T13:23:21.363Z,23.30
2017-09-10T13:25:49.027Z,23.70
2017-09-10T13:28:17.421Z,23.90
2017-09-10T13:30:45.032Z,22.80
2017-09-10T13:33:12.610Z,22.40
2017-09-10T13:35:40.198Z,21.90
2017-09-10T13:38:07.784Z,21.20
2017-09-10T13:40:36.542Z,20.90
2017-09-10T13:43:04.130Z,20.90
2017-09-10T13:45:32.469Z,20.70
2017-09-10T13:48:00.079Z,20.70
2017-09-10T13:50:27.676Z,20.60
2017-09-10T13:52:55.282Z,20.70
2017-09-10T13:55:23.641Z,20.50
2017-09-10T13:57:51.592Z,20.50
2017-09-10T14:00:19.191Z,20.40
2017-09-10T14:02:47.689Z,20.00
2017-09-10T14:05:15.263Z,19.90
2017-09-10T14:07:42.831Z,20.10
2017-09-10T14:10:10.426Z,20.10
2017-09-10T14:12:37.986Z,19.50
2017-09-10T14:15:05.972Z,19.70
2017-09-10T14:17:34.313Z,19.40
2017-09-10T14:20:01.886Z,19.30
2017-09-10T14:22:29.462Z,19.40
2017-09-10T14:24:57.412Z,19.60
2017-09-10T14:27:25.091Z,19.60
2017-09-10T14:29:52.673Z,19.90
2017-09-10T14:32:21.315Z,19.60
2017-09-10T14:34:48.890Z,19.50
2017-09-10T14:37:16.515Z,19.50
2017-09-10T14:39:44.137Z,19.50
2017-09-10T14:42:12.499Z,19.10
2017-09-10T14:44:40.855Z,19.40
2017-09-10T14:47:08.443Z,19.40
2017-09-10T14:49:37.095Z,19.60
2017-09-10T14:52:04.663Z,19.60
2017-09-10T14:54:32.242Z,19.60
2017-09-10T14:57:00.590Z,19.30
2017-09-10T14:59:28.193Z,19.30
2017-09-10T15:01:56.600Z,19.00
2017-09-10T15:04:24.164Z,18.90
2017-09-10T15:06:52.289Z,19.10
2017-09-10T15:09:20.668Z,18.90
2017-09-10T15:11:48.297Z,18.90
2017-09-10T15:14:16.699Z,18.60
2017-09-10T15:16:44.282Z,18.60
2017-09-10T15:19:12.659Z,18.80
2017-09-10T15:21:41.009Z,18.80
2017-09-10T15:24:08.974Z,18.80
2017-09-10T15:26:36.561Z,18.80
2017-09-10T15:29:04.919Z,18.90
2017-09-10T15:31:32.530Z,18.90
2017-09-10T15:34:00.120Z,19.10
2017-09-10T15:36:27.988Z,19.00
2017-09-10T15:38:55.597Z,19.10
2017-09-10T15:41:23.543Z,19.20
2017-09-10T15:43:51.962Z,19.80
2017-09-10T15:46:19.588Z,19.70
2017-09-10T15:48:48.003Z,19.80
2017-09-10T15:51:15.567Z,19.80
2017-09-10T15:53:43.165Z,19.70
2017-09-10T15:56:10.723Z,19.60
2017-09-10T15:58:38.802Z,19.20
2017-09-10T16:01:06.394Z,19.20
2017-09-10T16:03:34.001Z,18.80
2017-09-10T16:06:01.610Z,18.70
2017-09-10T16:08:29.987Z,18.50
2017-09-10T16:10:57.920Z,18.50
2017-09-10T16:13:25.549Z,18.60
2017-09-10T16:15:53.156Z,18.80
2017-09-10T16:18:20.789Z,18.90
2017-09-10T16:20:48.419Z,19.10
2017-09-10T16:23:16.068Z,18.80
2017-09-10T16:25:43.658Z,18.60
2017-09-10T16:28:11.627Z,18.40
2017-09-10T16:30:39.241Z,18.40
2017-09-10T16:33:07.631Z,18.70
2017-09-10T16:35:35.243Z,18.70
2017-09-10T16:38:02.852Z,18.70
2017-09-10T16:40:30.518Z,18.60
2017-09-10T16:42:58.096Z,18.60
2017-09-10T16:45:26.093Z,18.60
2017-09-10T16:47:53.671Z,18.50
2017-09-10T16:50:21.422Z,18.30
2017-09-10T16:52:49.036Z,18.10
2017-09-10T16:55:16.637Z,18.00
2017-09-10T16:57:44.269Z,17.80
2017-09-10T17:00:11.901Z,17.80
2017-09-10T17:02:39.822Z,17.60
2017-09-10T17:05:07.428Z,17.50
2017-09-10T17:07:34.987Z,17.20
2017-09-10T17:10:02.593Z,17.00
2017-09-10T17:12:30.183Z,16.90
2017-09-10T17:14:57.795Z,16.80
2017-09-10T17:17:25.375Z,16.70
2017-09-10T17:19:53.013Z,16.60
2017-09-10T17:22:20.620Z,16.50
2017-09-10T17:24:48.194Z,16.40
2017-09-10T17:27:16.483Z,16.30
2017-09-10T17:29:44.070Z,16.20
2017-09-10T17:32:11.661Z,16.10
2017-09-10T17:34:39.295Z,16.00
2017-09-10T17:37:06.879Z,15.90
2017-09-10T17:39:34.856Z,15.70
2017-09-10T17:42:02.449Z,15.60
2017-09-10T17:44:30.799Z,15.50
2017-09-10T17:46:58.448Z,15.50
2017-09-10T17:49:26.027Z,15.50
2017-09-10T17:51:54.453Z,15.50
2017-09-10T17:54:22.058Z,15.50
2017-09-10T17:56:49.976Z,15.40
2017-09-10T17:59:17.577Z,15.50
2017-09-10T18:01:45.299Z,15.40
2017-09-10T18:04:12.951Z,15.50
2017-09-10T18:06:40.567Z,15.50
2017-09-10T18:09:08.192Z,15.50
2017-09-10T18:11:35.781Z,15.50
2017-09-10T18:14:03.648Z,15.50
2017-09-10T18:16:31.261Z,15.40
2017-09-10T18:18:58.836Z,15.30
2017-09-10T18:21:26.478Z,15.20
2017-09-10T18:23:54.054Z,15.10
2017-09-10T18:26:22.064Z,14.90
2017-09-10T18:28:49.639Z,14.80
2017-09-10T18:31:17.996Z,14.40
2017-09-10T18:33:45.583Z,14.40
2017-09-10T18:36:13.928Z,14.10
2017-09-10T18:38:41.558Z,14.10
2017-09-10T18:41:09.175Z,14.00
2017-09-10T18:43:38.019Z,14.20
2017-09-10T18:46:08.114Z,14.20
2017-09-10T18:48:35.764Z,14.40
2017-09-10T18:51:03.402Z,14.30
2017-09-10T18:53:31.801Z,13.80
2017-09-10T18:55:59.406Z,13.80
2017-09-10T18:58:27.077Z,13.60
2017-09-10T19:00:54.979Z,13.50
2017-09-10T19:03:22.608Z,13.30
2017-09-10T19:05:50.231Z,13.30
2017-09-10T19:08:17.959Z,13.20
2017-09-10T19:10:46.341Z,13.00
2017-09-10T19:13:13.957Z,13.00
2017-09-10T19:15:41.584Z,12.90
2017-09-10T19:27:54.223Z,12.70
2017-09-10T19:30:22.280Z,12.40
2017-09-10T19:32:49.960Z,12.40
2017-09-10T19:35:18.286Z,12.30
2017-09-10T19:37:45.949Z,12.30
2017-09-10T19:40:13.567Z,12.30
2017-09-10T19:42:41.934Z,12.40
2017-09-10T19:45:10.307Z,12.40
2017-09-10T19:47:38.181Z,12.40
2017-09-10T19:50:06.894Z,12.40
2017-09-10T19:52:34.516Z,12.40
2017-09-10T19:55:02.156Z,12.40
2017-09-10T19:57:29.782Z,12.30
2017-09-10T19:59:57.411Z,12.30
2017-09-10T20:02:25.083Z,12.20
2017-09-10T20:04:53.044Z,12.00
2017-09-10T20:07:21.421Z,11.90
2017-09-10T20:09:49.756Z,11.80
2017-09-10T20:12:17.714Z,11.80
2017-09-10T20:14:45.276Z,11.80
2017-09-10T20:17:12.933Z,11.70
2017-09-10T20:19:40.515Z,11.70
2017-09-10T20:22:08.412Z,11.60
2017-09-10T20:24:35.988Z,11.60
2017-09-10T20:27:03.595Z,11.50
2017-09-10T20:29:31.190Z,11.40
2017-09-10T20:31:59.596Z,11.20
2017-09-10T20:34:27.216Z,11.20
2017-09-10T20:36:54.803Z,11.10
2017-09-10T20:39:22.722Z,11.10
2017-09-10T20:41:50.342Z,11.00
2017-09-10T20:44:17.929Z,11.10
2017-09-10T20:46:45.699Z,11.10
2017-09-10T20:49:13.310Z,11.00
2017-09-10T20:51:41.745Z,10.90
2017-09-10T20:54:09.496Z,10.80
2017-09-10T20:56:37.474Z,10.80
2017-09-10T20:59:05.079Z,10.70
2017-09-10T21:01:33.442Z,10.60
2017-09-10T21:04:01.818Z,10.60
2017-09-10T21:06:29.515Z,10.60
2017-09-10T21:08:57.138Z,10.60
2017-09-10T21:11:24.768Z,10.60
2017-09-10T21:13:52.789Z,10.60
2017-09-10T21:16:20.402Z,10.60
2017-09-10T21:18:48.036Z,10.60
2017-09-10T21:21:15.650Z,10.50
2017-09-10T21:23:43.221Z,10.50
2017-09-10T21:26:11.619Z,10.50
2017-09-10T21:28:39.210Z,10.50
2017-09-10T21:31:07.087Z,10.50
2017-09-10T21:33:34.656Z,10.50
2017-09-10T21:36:02.257Z,10.60
2017-09-10T21:38:30.624Z,10.70
2017-09-10T21:40:58.226Z,10.60
2017-09-10T21:43:25.826Z,10.60
2017-09-10T21:45:53.410Z,10.60
2017-09-10T21:48:22.081Z,10.60
2017-09-10T21:50:49.655Z,10.50
2017-09-10T21:53:18.001Z,10.50
2017-09-10T21:55:45.624Z,10.50
2017-09-10T21:58:13.234Z,10.50
2017-09-10T22:00:40.814Z,10.60
2017-09-10T22:03:09.142Z,10.50
2017-09-10T22:05:37.002Z,10.50
2017-09-10T22:08:04.542Z,10.50
2017-09-10T22:10:32.121Z,10.60
2017-09-10T22:12:59.715Z,10.70
2017-09-10T22:15:27.302Z,10.70
2017-09-10T22:17:55.693Z,10.70
2017-09-10T22:20:23.605Z,10.70
2017-09-10T22:22:51.455Z,10.80
2017-09-10T22:25:19.066Z,10.80
2017-09-10T22:27:47.396Z,10.70
2017-09-10T22:30:14.990Z,10.70
2017-09-10T22:32:42.565Z,10.70
2017-09-10T22:35:10.921Z,10.70
2017-09-10T22:37:38.494Z,10.70
2017-09-10T22:40:07.137Z,10.80
2017-09-10T22:42:34.798Z,10.70
2017-09-10T22:45:02.369Z,10.70
2017-09-10T22:47:29.957Z,10.70
2017-09-10T22:49:58.286Z,10.60
2017-09-10T22:52:26.163Z,10.60
2017-09-10T22:54:53.799Z,10.70
2017-09-10T22:57:21.365Z,10.70
2017-09-10T22:59:48.968Z,10.80
2017-09-10T23:02:16.562Z,10.80
2017-09-10T23:04:44.492Z,10.80
2017-09-10T23:07:12.068Z,10.90
2017-09-10T23:09:41.161Z,10.80
2017-09-10T23:12:09.525Z,10.90
2017-09-10T23:14:37.149Z,10.90
2017-09-10T23:17:05.025Z,11.00
2017-09-10T23:19:32.614Z,11.10
2017-09-10T23:22:00.186Z,11.10
2017-09-10T23:24:28.667Z,11.30
2017-09-10T23:26:57.000Z,11.30
2017-09-10T23:29:24.602Z,11.30
2017-09-10T23:31:52.942Z,11.30
2017-09-10T23:34:20.502Z,11.40
2017-09-10T23:36:48.090Z,11.30
2017-09-10T23:39:15.670Z,11.20
2017-09-10T23:41:43.993Z,11.00
2017-09-10T23:44:11.546Z,11.00
2017-09-10T23:46:39.179Z,11.00
2017-09-10T23:49:06.773Z,11.00
2017-09-10T23:51:34.330Z,11.00
2017-09-10T23:54:01.930Z,11.10
2017-09-10T23:56:30.262Z,11.10
2017-09-10T23:58:57.858Z,11.00
